Česky Dansk Deutsch English Español Suomi Français Magyar Italiano Nederlands norsk Polski Português svenska Türkçe

 

Het Weer

Lucenec (Slowakije)

11:10, 14 maart 2013 (GMT)

NWNNE
WE
SWSSE
Home            
Lucenec Sliac Sliac Miskolc Poprad / Tatry Prievidza Budapest Met Center Budapest / Ferihegy Budaors Kosice Kosice, Barca Nitra Tokol Dolny Hricov Szolnok Piestany Piestany Kecskemet Debrecen Nyiregyhaza / Napkor Kamenica Nad Cirochou Kunovice Bratislava Ivanka

Om een weerknop op uw website of weblog te plaatsen, copieer onderstaande code en plak die in uw pagina. In het eerste vakje staat HTML-code, in het tweede vakje UBB-code.


Add to Google

Details

Wind speed:3 bf, 9 kn, 4.6 m/s, 10.4 miles/h, 16.7 km/h
Wind direction:E, 080°
Het Weer:moderate
moderate
Temperature:2°C, 36°F
Gefühlte Temperatur:-3°C, 28°F
Dew-point:1°C, 34°F
Atmospheric pressure:994 hPa, 745.6 mmHg, 29.35 inHg, 0.981 atm
Relative humidity:93.1 %
METAR:LZLU 141110Z AUTO 08009KT 02/01 Q0994

Snelkoppelingen

Actuele weersinformatie van de hele wereld. Voeg locaties toe met het plus (+) symbool. Deze snelkoppelingen kunnen worden toegevoegd aan Google.

Lid van de Technetium groep

website free tracking
StatCounter NetStat W3C Validator

28-05-2020 05:23:06
astro.technetium.be money.technetium.be phote.technetium.be tafeltennistafel.technetium.be www.ligfiets.net